createdAt,value
2022-10-06T00:00:25.364Z,69.48
2022-10-06T00:02:55.669Z,69.12
2022-10-06T00:05:25.193Z,68.21
2022-10-06T00:07:55.458Z,68.24
2022-10-06T00:10:25.646Z,67.44
2022-10-06T00:12:54.731Z,66.98
2022-10-06T00:15:25.727Z,67.85
2022-10-06T00:17:57.445Z,68.46
2022-10-06T00:20:27.911Z,66.71
2022-10-06T00:22:57.534Z,67.03
2022-10-06T00:25:28.361Z,67.06
2022-10-06T00:27:57.429Z,68.35
2022-10-06T00:30:28.233Z,67.42
2022-10-06T00:33:03.573Z,68.01
2022-10-06T00:35:33.723Z,68.33
2022-10-06T00:38:03.076Z,68.67
2022-10-06T00:40:33.270Z,67.66
2022-10-06T00:43:04.190Z,68.92
2022-10-06T00:45:38.304Z,68.37
2022-10-06T00:48:11.776Z,67.85
2022-10-06T00:50:42.087Z,69.29
2022-10-06T00:53:14.747Z,68.94
2022-10-06T00:55:45.935Z,68.22
2022-10-06T00:58:16.066Z,68.78
2022-10-06T01:00:46.597Z,69.53
2022-10-06T01:03:20.380Z,68.64
2022-10-06T01:05:52.721Z,68.42
2022-10-06T01:08:23.905Z,68.26
2022-10-06T01:10:52.898Z,65.68
2022-10-06T01:13:23.471Z,65.84
2022-10-06T01:15:57.402Z,65.99
2022-10-06T01:18:31.472Z,66.67
2022-10-06T01:21:07.798Z,66.65
2022-10-06T01:23:38.123Z,66.70
2022-10-06T01:26:11.367Z,67.33
2022-10-06T01:28:41.124Z,67.61
2022-10-06T01:31:12.275Z,67.60
2022-10-06T01:33:41.818Z,69.33
2022-10-06T01:36:10.826Z,68.68
2022-10-06T01:38:44.534Z,69.31
2022-10-06T01:41:16.176Z,67.94
2022-10-06T01:43:44.966Z,66.99
2022-10-06T01:46:13.705Z,66.85
2022-10-06T01:48:43.005Z,66.59
2022-10-06T01:51:16.091Z,66.44
2022-10-06T01:53:46.518Z,67.00
2022-10-06T01:56:15.241Z,65.91
2022-10-06T01:58:46.918Z,67.76
2022-10-06T02:01:18.887Z,67.00
2022-10-06T02:03:47.720Z,67.96
2022-10-06T02:06:16.448Z,67.77
2022-10-06T02:08:49.213Z,68.44
2022-10-06T02:11:20.060Z,68.75
2022-10-06T02:13:50.975Z,68.64
2022-10-06T02:16:22.131Z,68.75
2022-10-06T02:18:50.942Z,69.00
2022-10-06T02:21:23.021Z,69.28
2022-10-06T02:23:53.139Z,70.11
2022-10-06T02:26:21.897Z,70.32
2022-10-06T02:28:54.643Z,71.42
2022-10-06T02:31:26.116Z,70.68
2022-10-06T02:33:58.959Z,69.15
2022-10-06T02:36:27.671Z,69.44
2022-10-06T02:38:58.508Z,70.12
2022-10-06T02:41:27.490Z,70.83
2022-10-06T02:43:56.336Z,70.51
2022-10-06T02:46:26.438Z,69.87
2022-10-06T02:48:57.822Z,71.09
2022-10-06T02:51:26.623Z,71.18
2022-10-06T02:53:56.271Z,71.44
2022-10-06T02:56:28.807Z,72.18
2022-10-06T02:59:00.611Z,72.17
2022-10-06T03:01:32.828Z,72.38
2022-10-06T03:04:11.649Z,71.73
2022-10-06T03:06:43.681Z,72.42
2022-10-06T03:09:21.215Z,72.55
2022-10-06T03:11:52.054Z,72.64
2022-10-06T03:14:33.335Z,72.85
2022-10-06T03:17:02.034Z,72.86
2022-10-06T03:19:31.844Z,72.85
2022-10-06T03:22:01.344Z,73.39
2022-10-06T03:24:38.932Z,73.48
2022-10-06T03:27:09.244Z,72.38
2022-10-06T03:29:38.025Z,72.02
2022-10-06T03:32:07.323Z,73.54
2022-10-06T03:34:37.650Z,73.84
2022-10-06T03:37:11.351Z,74.14
2022-10-06T03:39:42.699Z,73.63
2022-10-06T03:42:14.066Z,72.60
2022-10-06T03:44:43.883Z,72.98
2022-10-06T03:47:16.987Z,73.99
2022-10-06T03:49:46.737Z,73.94
2022-10-06T03:52:25.767Z,73.57
2022-10-06T03:54:55.299Z,73.87
2022-10-06T03:57:26.088Z,73.79
2022-10-06T03:59:59.271Z,74.24
2022-10-06T04:02:28.392Z,72.79
2022-10-06T04:05:00.324Z,73.10
2022-10-06T04:07:29.088Z,73.35
2022-10-06T04:09:58.096Z,73.48
2022-10-06T04:12:30.496Z,74.23
2022-10-06T04:15:00.306Z,73.95
2022-10-06T04:17:30.133Z,74.21
2022-10-06T04:19:59.243Z,74.29
2022-10-06T04:22:27.987Z,74.38
2022-10-06T04:24:56.704Z,74.20
2022-10-06T04:27:30.999Z,74.23
2022-10-06T04:30:16.942Z,75.14
2022-10-06T04:32:46.431Z,74.92
2022-10-06T04:35:15.425Z,75.39
2022-10-06T04:37:44.550Z,75.13
2022-10-06T04:40:16.073Z,75.30
2022-10-06T04:42:45.626Z,75.98
2022-10-06T04:45:18.838Z,75.86
2022-10-06T04:47:49.753Z,76.42
2022-10-06T04:50:18.724Z,75.76
2022-10-06T04:53:05.856Z,76.85
2022-10-06T04:55:34.755Z,76.21
2022-10-06T04:58:04.303Z,76.67
2022-10-06T05:00:34.526Z,76.92
2022-10-06T05:03:03.230Z,76.99
2022-10-06T05:05:32.175Z,77.30
2022-10-06T05:08:00.916Z,77.11
2022-10-06T05:10:30.209Z,77.49
2022-10-06T05:12:59.262Z,77.65
2022-10-06T05:15:29.220Z,77.93
2022-10-06T05:17:59.554Z,77.60
2022-10-06T05:20:28.613Z,77.76
2022-10-06T05:22:57.652Z,78.27
2022-10-06T05:25:26.892Z,78.78
2022-10-06T05:27:56.066Z,78.85
2022-10-06T05:30:28.166Z,79.20
2022-10-06T05:33:01.290Z,79.33
2022-10-06T05:35:33.029Z,79.61
2022-10-06T05:38:01.810Z,79.62
2022-10-06T05:40:31.383Z,79.84
2022-10-06T05:43:00.265Z,79.26
2022-10-06T05:45:29.691Z,80.06
2022-10-06T05:48:03.207Z,80.06
2022-10-06T05:50:32.668Z,80.23
2022-10-06T05:53:01.323Z,80.30
2022-10-06T05:55:32.031Z,80.88
2022-10-06T05:58:01.096Z,81.08
2022-10-06T06:00:35.105Z,80.45
2022-10-06T06:03:05.916Z,80.27
2022-10-06T06:05:34.935Z,79.74
2022-10-06T06:08:06.111Z,80.29
2022-10-06T06:10:34.834Z,80.05
2022-10-06T06:13:08.165Z,79.98
2022-10-06T06:16:04.110Z,80.77
2022-10-06T06:18:38.296Z,81.07
2022-10-06T06:21:10.420Z,81.14
2022-10-06T06:23:44.188Z,81.07
2022-10-06T06:26:15.256Z,81.25
2022-10-06T06:28:48.695Z,80.48
2022-10-06T06:31:21.234Z,81.15
2022-10-06T06:33:57.018Z,80.84
2022-10-06T06:36:32.053Z,81.19
2022-10-06T06:39:05.730Z,81.52
2022-10-06T06:41:38.433Z,81.42
2022-10-06T06:44:14.032Z,81.41
2022-10-06T06:46:53.220Z,81.22
2022-10-06T06:49:24.091Z,81.40
2022-10-06T06:51:57.949Z,81.92
2022-10-06T06:54:31.637Z,81.47
2022-10-06T06:57:05.465Z,81.78
2022-10-06T06:59:35.305Z,81.80
2022-10-06T07:02:04.717Z,81.83
2022-10-06T07:04:38.776Z,81.41
2022-10-06T07:07:12.218Z,81.74
2022-10-06T07:09:43.409Z,82.27
2022-10-06T07:12:14.166Z,81.97
2022-10-06T07:14:59.622Z,82.44
2022-10-06T07:17:48.219Z,82.39
2022-10-06T07:20:36.280Z,82.56
2022-10-06T07:23:23.665Z,82.68
2022-10-06T07:25:54.216Z,82.61
2022-10-06T07:28:23.784Z,82.30
2022-10-06T07:30:53.287Z,81.66
2022-10-06T07:33:28.471Z,81.91
2022-10-06T07:35:59.241Z,80.65
2022-10-06T07:38:30.763Z,81.06
2022-10-06T07:41:18.291Z,81.57
2022-10-06T07:43:53.892Z,81.74
2022-10-06T07:46:25.630Z,81.48
2022-10-06T07:49:07.445Z,82.40
2022-10-06T07:51:40.513Z,81.67
2022-10-06T07:54:09.593Z,80.64
2022-10-06T07:57:01.447Z,80.23
2022-10-06T07:59:30.295Z,80.41
2022-10-06T08:01:59.053Z,80.42
2022-10-06T08:04:27.751Z,80.15
2022-10-06T08:07:00.933Z,79.53
2022-10-06T08:09:30.762Z,78.96
2022-10-06T08:12:19.587Z,77.98
2022-10-06T08:14:48.444Z,77.86
2022-10-06T08:17:22.068Z,77.29
2022-10-06T08:19:51.251Z,76.67
2022-10-06T08:22:22.422Z,76.73
2022-10-06T08:25:05.350Z,75.87
2022-10-06T08:27:35.628Z,75.49
2022-10-06T08:30:05.779Z,74.90
2022-10-06T08:32:37.805Z,74.80
2022-10-06T08:35:12.424Z,73.88
2022-10-06T08:37:43.002Z,72.68
2022-10-06T08:40:15.784Z,70.26
2022-10-06T08:42:48.621Z,69.54
2022-10-06T08:45:24.178Z,66.41
2022-10-06T08:48:01.222Z,65.08
2022-10-06T08:50:33.800Z,62.96
2022-10-06T08:53:15.571Z,62.46
2022-10-06T08:55:49.287Z,62.87
2022-10-06T08:58:29.352Z,63.56
2022-10-06T09:01:07.368Z,61.70
2022-10-06T09:03:37.973Z,63.45
2022-10-06T09:06:17.420Z,62.62
2022-10-06T09:08:53.249Z,60.44
2022-10-06T09:11:46.552Z,60.57
2022-10-06T09:14:21.027Z,59.66
2022-10-06T09:16:54.876Z,59.58
2022-10-06T09:19:32.874Z,58.76
2022-10-06T09:22:05.674Z,58.09
2022-10-06T09:24:47.008Z,58.42
2022-10-06T09:27:19.989Z,59.80
2022-10-06T09:29:50.103Z,60.38
2022-10-06T09:32:21.856Z,59.49
2022-10-06T09:34:52.480Z,60.13
2022-10-06T09:37:21.881Z,59.05
2022-10-06T09:39:57.358Z,57.46
2022-10-06T09:42:30.375Z,58.01
2022-10-06T09:45:01.977Z,57.29
2022-10-06T09:47:39.096Z,53.32
2022-10-06T09:50:20.626Z,54.59
2022-10-06T09:53:05.675Z,54.83
2022-10-06T09:55:54.765Z,54.91
2022-10-06T09:58:31.480Z,54.85
2022-10-06T10:01:09.003Z,55.32
2022-10-06T10:04:15.520Z,54.65
2022-10-06T10:06:43.387Z,54.24
2022-10-06T10:09:24.632Z,56.00
2022-10-06T10:12:32.271Z,54.26
2022-10-06T10:15:04.650Z,54.08
2022-10-06T10:17:49.119Z,55.31
2022-10-06T10:20:29.207Z,54.04
2022-10-06T10:23:04.002Z,53.90
2022-10-06T10:26:03.187Z,54.37
2022-10-06T10:29:08.005Z,54.47
2022-10-06T10:31:49.189Z,53.44
2022-10-06T10:34:38.275Z,52.66
2022-10-06T10:37:12.279Z,53.38
2022-10-06T10:39:49.558Z,53.55
2022-10-06T10:42:23.145Z,52.41
2022-10-06T10:45:00.326Z,51.71
2022-10-06T10:47:35.083Z,52.30
2022-10-06T10:50:12.739Z,52.20
2022-10-06T10:52:45.623Z,50.90
2022-10-06T10:55:27.269Z,50.62
2022-10-06T10:58:02.296Z,49.53
2022-10-06T11:00:39.659Z,48.72
2022-10-06T11:03:11.784Z,50.55
2022-10-06T11:05:58.098Z,49.48
2022-10-06T11:08:34.196Z,47.66
2022-10-06T11:11:09.589Z,47.53
2022-10-06T11:13:44.467Z,47.31
2022-10-06T11:16:27.200Z,47.72
2022-10-06T11:19:09.891Z,47.29
2022-10-06T11:21:45.437Z,47.47
2022-10-06T11:24:21.878Z,47.40
2022-10-06T11:27:19.362Z,48.54
2022-10-06T11:29:58.350Z,48.67
2022-10-06T11:32:36.844Z,47.57
2022-10-06T11:35:19.021Z,46.37
2022-10-06T11:37:52.223Z,47.84
2022-10-06T11:40:37.094Z,48.38
2022-10-06T11:43:13.354Z,48.22
2022-10-06T11:45:49.544Z,48.30
2022-10-06T11:48:28.366Z,49.29
2022-10-06T11:50:57.605Z,48.73
2022-10-06T11:53:40.215Z,49.30
2022-10-06T11:56:45.793Z,48.45
2022-10-06T11:59:30.427Z,47.61
2022-10-06T12:02:03.186Z,48.21
2022-10-06T12:04:33.399Z,48.60
2022-10-06T12:07:06.450Z,48.54
2022-10-06T12:09:53.385Z,48.62
2022-10-06T12:13:06.892Z,47.81
2022-10-06T12:17:09.319Z,48.21
2022-10-06T12:19:03.735Z,49.82
2022-10-06T12:21:53.286Z,48.76
2022-10-06T12:24:41.457Z,48.37
2022-10-06T12:27:48.747Z,48.31
2022-10-06T12:30:22.800Z,48.14
2022-10-06T12:32:54.919Z,46.61
2022-10-06T12:35:32.072Z,46.56
2022-10-06T12:38:06.262Z,46.06
2022-10-06T12:40:59.596Z,47.09
2022-10-06T12:43:49.705Z,49.31
2022-10-06T12:46:27.023Z,48.75
2022-10-06T12:49:08.796Z,49.08
2022-10-06T12:51:41.908Z,48.04
2022-10-06T12:54:20.562Z,47.49
2022-10-06T12:56:58.996Z,48.23
2022-10-06T12:59:31.750Z,47.69
2022-10-06T13:02:03.511Z,46.18
2022-10-06T13:04:35.513Z,46.50
2022-10-06T13:07:15.195Z,46.31
2022-10-06T13:09:46.737Z,47.22
2022-10-06T13:12:27.940Z,47.40
2022-10-06T13:15:16.258Z,47.34
2022-10-06T13:17:48.743Z,46.26
2022-10-06T13:20:23.887Z,47.06
2022-10-06T13:23:00.620Z,47.80
2022-10-06T13:25:44.384Z,47.06
2022-10-06T13:28:24.110Z,47.17
2022-10-06T13:30:55.083Z,46.47
2022-10-06T13:33:25.205Z,46.83
2022-10-06T13:35:55.269Z,47.41
2022-10-06T13:38:23.962Z,46.04
2022-10-06T13:41:25.939Z,47.16
2022-10-06T13:43:58.440Z,46.19
2022-10-06T13:46:29.705Z,46.46
2022-10-06T13:49:03.498Z,46.64
2022-10-06T13:51:33.681Z,47.11
2022-10-06T13:54:24.007Z,46.92
2022-10-06T13:56:54.482Z,46.17
2022-10-06T13:59:35.848Z,46.46
2022-10-06T14:02:24.439Z,46.92
2022-10-06T14:05:27.039Z,47.61
2022-10-06T14:07:59.254Z,48.76
2022-10-06T14:10:33.520Z,48.58
2022-10-06T14:13:09.002Z,47.14
2022-10-06T14:15:46.736Z,47.28
2022-10-06T14:18:23.284Z,48.08
2022-10-06T14:20:53.388Z,46.25
2022-10-06T14:23:36.026Z,45.89
2022-10-06T14:26:05.158Z,46.22
2022-10-06T14:28:38.177Z,46.57
2022-10-06T14:31:10.726Z,47.86
2022-10-06T14:33:42.467Z,46.37
2022-10-06T14:36:18.266Z,47.92
2022-10-06T14:38:49.498Z,48.16
2022-10-06T14:41:24.829Z,48.80
2022-10-06T14:43:56.045Z,47.37
2022-10-06T14:46:25.982Z,45.86
2022-10-06T14:48:55.296Z,46.89
2022-10-06T14:51:24.912Z,46.75
2022-10-06T14:53:54.866Z,46.94
2022-10-06T14:56:27.801Z,47.29
2022-10-06T14:59:00.143Z,48.58
2022-10-06T15:01:30.151Z,48.69
2022-10-06T15:04:00.708Z,49.53
2022-10-06T15:06:47.066Z,50.06
2022-10-06T15:09:16.076Z,50.96
2022-10-06T15:11:44.776Z,51.59
2022-10-06T15:14:17.363Z,51.53
2022-10-06T15:16:46.149Z,50.03
2022-10-06T15:19:14.896Z,50.99
2022-10-06T15:21:46.303Z,52.20
2022-10-06T15:24:17.027Z,53.57
2022-10-06T15:27:06.273Z,52.45
2022-10-06T15:29:37.816Z,53.61
2022-10-06T15:32:11.778Z,54.06
2022-10-06T15:34:43.540Z,53.02
2022-10-06T15:37:14.725Z,53.21
2022-10-06T15:39:44.344Z,53.20
2022-10-06T15:42:15.510Z,54.52
2022-10-06T15:44:45.857Z,54.84
2022-10-06T15:47:17.157Z,55.45
2022-10-06T15:49:47.072Z,56.50
2022-10-06T15:52:17.740Z,56.91
2022-10-06T15:54:49.882Z,57.03
2022-10-06T15:57:21.209Z,57.25
2022-10-06T15:59:53.863Z,57.08
2022-10-06T16:02:23.001Z,56.75
2022-10-06T16:05:17.844Z,56.92
2022-10-06T16:07:47.342Z,56.80
2022-10-06T16:10:16.272Z,57.44
2022-10-06T16:12:44.947Z,56.44
2022-10-06T16:15:15.331Z,56.74
2022-10-06T16:17:46.288Z,56.85
2022-10-06T16:20:16.730Z,56.13
2022-10-06T16:22:45.406Z,56.24
2022-10-06T16:25:14.275Z,56.00
2022-10-06T16:27:43.986Z,54.92
2022-10-06T16:30:14.398Z,55.26
2022-10-06T16:32:46.247Z,55.79
2022-10-06T16:35:18.340Z,56.27
2022-10-06T16:37:50.141Z,57.27
2022-10-06T16:40:19.242Z,57.45
2022-10-06T16:42:48.142Z,58.22
2022-10-06T16:45:21.270Z,58.52
2022-10-06T16:47:50.198Z,58.89
2022-10-06T16:50:18.783Z,59.06
2022-10-06T16:52:47.690Z,58.70
2022-10-06T16:55:16.471Z,59.38
2022-10-06T16:57:45.607Z,59.42
2022-10-06T17:00:15.059Z,60.35
2022-10-06T17:02:45.186Z,60.39
2022-10-06T17:06:40.840Z,61.13
2022-10-06T17:09:14.002Z,61.43
2022-10-06T17:11:44.325Z,61.35
2022-10-06T17:14:13.173Z,62.70
2022-10-06T17:16:44.367Z,62.90
2022-10-06T17:19:15.916Z,62.79
2022-10-06T17:21:47.421Z,63.53
2022-10-06T17:24:20.441Z,63.70
2022-10-06T17:26:50.555Z,63.59
2022-10-06T17:29:21.580Z,63.78
2022-10-06T17:31:59.908Z,63.97
2022-10-06T17:34:32.665Z,64.21
2022-10-06T17:37:03.137Z,64.58
2022-10-06T17:39:32.094Z,64.56
2022-10-06T17:42:00.734Z,64.87
2022-10-06T17:44:31.153Z,64.97
2022-10-06T17:47:01.356Z,65.59
2022-10-06T17:49:35.388Z,65.43
2022-10-06T17:52:05.868Z,65.51
2022-10-06T17:54:34.855Z,66.17
2022-10-06T17:57:03.783Z,66.55
2022-10-06T17:59:33.845Z,66.27
2022-10-06T18:02:06.548Z,66.85
2022-10-06T18:04:39.103Z,66.81
2022-10-06T18:07:08.507Z,67.11
2022-10-06T18:10:01.112Z,66.34
2022-10-06T18:12:38.732Z,66.93
2022-10-06T18:15:12.467Z,67.30
2022-10-06T18:17:42.608Z,67.52
2022-10-06T18:20:21.486Z,67.89
2022-10-06T18:22:50.798Z,68.14
2022-10-06T18:25:24.501Z,68.26
2022-10-06T18:27:56.495Z,69.14
2022-10-06T18:30:29.457Z,69.67
2022-10-06T18:36:06.715Z,70.05
2022-10-06T18:38:47.027Z,69.98
2022-10-06T18:41:22.779Z,70.38
2022-10-06T18:43:54.959Z,70.11
2022-10-06T18:46:42.109Z,70.10
2022-10-06T18:49:13.589Z,70.18
2022-10-06T18:51:45.682Z,71.20
2022-10-06T18:54:16.897Z,72.07
2022-10-06T18:56:51.734Z,72.12
2022-10-06T18:59:23.475Z,72.05
2022-10-06T19:01:52.680Z,72.74
2022-10-06T19:04:23.480Z,73.31
2022-10-06T19:06:56.548Z,73.57
2022-10-06T19:09:26.548Z,73.41
2022-10-06T19:11:57.884Z,71.99
2022-10-06T19:14:30.134Z,72.34
2022-10-06T19:17:01.156Z,72.77
2022-10-06T19:19:33.598Z,72.97
2022-10-06T19:22:05.887Z,73.81
2022-10-06T19:24:38.728Z,74.81
2022-10-06T19:27:12.256Z,75.45
2022-10-06T19:29:46.031Z,76.64
2022-10-06T19:32:21.654Z,76.57
2022-10-06T19:34:50.974Z,75.98
2022-10-06T19:37:21.044Z,75.50
2022-10-06T19:39:50.248Z,75.53
2022-10-06T19:42:37.588Z,75.68
2022-10-06T19:45:35.706Z,76.96
2022-10-06T19:48:05.023Z,77.37
2022-10-06T19:50:36.111Z,77.56
2022-10-06T19:53:06.658Z,77.71
2022-10-06T19:55:36.055Z,77.58
2022-10-06T19:58:05.517Z,77.53
2022-10-06T20:00:34.319Z,76.90
2022-10-06T20:03:07.641Z,77.09
2022-10-06T20:05:38.404Z,77.81
2022-10-06T20:08:08.722Z,78.82
2022-10-06T20:10:37.561Z,79.27
2022-10-06T20:13:09.867Z,78.81
2022-10-06T20:15:39.275Z,79.21
2022-10-06T20:18:09.476Z,78.45
2022-10-06T20:20:38.367Z,78.16
2022-10-06T20:23:08.969Z,77.60
2022-10-06T20:25:37.936Z,78.43
2022-10-06T20:28:09.379Z,79.37
2022-10-06T20:30:39.364Z,80.30
2022-10-06T20:33:11.470Z,80.19
2022-10-06T20:35:40.471Z,80.62
2022-10-06T20:38:10.694Z,81.34
2022-10-06T20:40:49.204Z,79.40
2022-10-06T20:43:17.912Z,79.88
2022-10-06T20:45:47.290Z,79.83
2022-10-06T20:48:18.693Z,80.19
2022-10-06T20:50:48.040Z,80.20
2022-10-06T20:53:18.034Z,80.38
2022-10-06T20:55:52.182Z,80.33
2022-10-06T20:58:25.187Z,81.43
2022-10-06T21:00:54.634Z,81.93
2022-10-06T21:03:25.926Z,81.49
2022-10-06T21:05:54.657Z,80.33
2022-10-06T21:08:27.154Z,82.02
2022-10-06T21:10:59.513Z,82.37
2022-10-06T21:13:29.453Z,81.96
2022-10-06T21:16:00.805Z,82.96
2022-10-06T21:18:32.703Z,82.96
2022-10-06T21:21:07.566Z,83.42
2022-10-06T21:23:42.174Z,82.67
2022-10-06T21:26:13.484Z,82.37
2022-10-06T21:28:45.502Z,82.54
2022-10-06T21:31:17.052Z,82.71
2022-10-06T21:33:47.069Z,83.10
2022-10-06T21:36:17.669Z,83.22
2022-10-06T21:38:49.463Z,84.89
2022-10-06T21:41:30.458Z,84.94
2022-10-06T21:44:00.917Z,84.69
2022-10-06T21:46:32.042Z,84.14
2022-10-06T21:49:02.002Z,83.63
2022-10-06T21:51:33.262Z,82.55
2022-10-06T21:54:03.908Z,83.88
2022-10-06T21:56:34.194Z,84.15
2022-10-06T21:59:04.650Z,84.63
2022-10-06T22:01:35.601Z,83.94
2022-10-06T22:04:04.652Z,84.73
2022-10-06T22:06:36.896Z,84.30
2022-10-06T22:09:12.683Z,83.71
2022-10-06T22:11:42.484Z,83.93
2022-10-06T22:14:13.762Z,84.16
2022-10-06T22:16:44.065Z,85.77
2022-10-06T22:19:14.487Z,84.86
2022-10-06T22:21:45.293Z,84.70
2022-10-06T22:24:18.233Z,82.98
2022-10-06T22:26:47.552Z,84.27
2022-10-06T22:29:17.962Z,85.69
2022-10-06T22:31:47.894Z,86.29
2022-10-06T22:34:18.748Z,85.51
2022-10-06T22:36:47.747Z,86.79
2022-10-06T22:39:18.908Z,87.11
2022-10-06T22:41:47.600Z,87.68
2022-10-06T22:44:16.656Z,87.86
2022-10-06T22:46:47.972Z,86.74
2022-10-06T22:49:16.714Z,87.20
2022-10-06T22:51:45.297Z,87.16
2022-10-06T22:54:19.943Z,86.67
2022-10-06T22:56:48.956Z,87.06
2022-10-06T22:59:17.648Z,87.53
2022-10-06T23:01:46.872Z,86.13
2022-10-06T23:04:16.374Z,86.82
2022-10-06T23:06:45.039Z,87.29
2022-10-06T23:09:14.199Z,86.82
2022-10-06T23:11:44.226Z,87.03
2022-10-06T23:14:12.915Z,86.68
2022-10-06T23:16:41.584Z,87.19
2022-10-06T23:19:12.666Z,87.08
2022-10-06T23:21:41.489Z,88.11
2022-10-06T23:24:10.152Z,88.81
2022-10-06T23:26:40.181Z,87.71
2022-10-06T23:29:12.864Z,87.51
2022-10-06T23:31:41.852Z,88.35
2022-10-06T23:34:11.074Z,88.90
2022-10-06T23:36:39.913Z,89.10
2022-10-06T23:39:08.513Z,88.62
2022-10-06T23:41:41.565Z,88.60
2022-10-06T23:44:11.711Z,88.92
2022-10-06T23:46:40.359Z,88.92
2022-10-06T23:49:09.237Z,88.49
2022-10-06T23:51:37.912Z,88.88
2022-10-06T23:54:06.636Z,88.08
2022-10-06T23:56:37.727Z,87.05
2022-10-06T23:59:08.687Z,87.63
